首页
METAR-TAF:

METAR-TAF

机场 :

贝伦, 帕拉, 巴西

纬度: 01-23S, 经度: 048-29W, 海拔: 16米

当前天气观测

该预报发布于1小时和3分钟前的23:00 UTC
风速9节,风向东北
温度 28°C
湿度 74%
气压 1008 hPa
能见度10公里或以上
少量云层高于3500英尺

METAR: SBBE 212300Z 05009KT 9999 FEW035 28/23 Q1008

时间: 21:03 (00:03 UTC)

预报

该预报发布于2小时和3分钟前的22:00 UTC
预报有效从22日的 00点(UTC)到 22日的 24点(UTC)
风速10节,风向东北
能见度10公里或以上
1500米以下无云,无积雨云
成为
从 22日的 03点(UTC)到 22日的 05点(UTC)
风速5节,风向东转东北
成为
从 22日的 09点(UTC)到 22日的 11点(UTC)
风速10节,风向东北
能见度10公里或以上
少量云层高于1700英尺
成为
从 22日的 13点(UTC)到 22日的 15点(UTC)
风速10节,风向北转西北
多云层高于4000英尺
成为
从 22日的 17点(UTC)到 22日的 19点(UTC)
风速10节,风向
少量云层高于4000英尺
成为
从 22日的 21点(UTC)到 22日的 23点(UTC)
风速10节,风向东北
能见度10公里或以上
1500米以下无云,无积雨云

TAF: SBBE 212200Z 2200/2224 05010KT CAVOK TN24/2207Z TX31/2214Z BECMG 2203/2205 07005KT BECMG 2209/2211 05010KT 9999 FEW017 BECMG 2213/2215 34010KT BKN040 BECMG 2217/2219 01010KT FEW040 BECMG 2221/2223 05010KT CAVOK RMK PDY

超过4000个机场的气象观测和天气预报(METAR&TAF报告)。

可查询的气象台以黄色和红色小点在地图上表示。

将鼠标移到小点上方,可查看气象台名称。

然后点击查看天气观测和预报。

如需切换地图:点击带黑十字的绿色按钮放大地图;点击带横线的绿色按钮缩小地图;或者点击绿色箭头查看邻近地区的地图。


METAR-TAF: